sensor_id;sensor_type;location;lat;lon;timestamp;P1;durP1;ratioP1;P2;durP2;ratioP2
71867;SDS011;59738;48.324;14.230;2023-04-24T00:00:55;2.92;;;2.42;;
71867;SDS011;59738;48.324;14.230;2023-04-24T00:03:24;2.83;;;2.20;;
71867;SDS011;59738;48.324;14.230;2023-04-24T00:05:51;2.70;;;2.00;;
71867;SDS011;59738;48.324;14.230;2023-04-24T00:08:20;3.63;;;2.13;;
71867;SDS011;59738;48.324;14.230;2023-04-24T00:10:48;2.65;;;2.15;;
71867;SDS011;59738;48.324;14.230;2023-04-24T00:13:15;2.90;;;2.00;;
71867;SDS011;59738;48.324;14.230;2023-04-24T00:15:43;2.10;;;1.90;;
71867;SDS011;59738;48.324;14.230;2023-04-24T00:18:10;3.17;;;1.80;;
71867;SDS011;59738;48.324;14.230;2023-04-24T00:20:37;3.08;;;1.95;;
71867;SDS011;59738;48.324;14.230;2023-04-24T00:23:05;2.50;;;1.90;;
71867;SDS011;59738;48.324;14.230;2023-04-24T00:25:34;1.77;;;1.63;;
71867;SDS011;59738;48.324;14.230;2023-04-24T00:28:01;7.32;;;1.67;;
71867;SDS011;59738;48.324;14.230;2023-04-24T00:30:28;1.70;;;1.57;;
71867;SDS011;59738;48.324;14.230;2023-04-24T00:32:55;2.75;;;1.70;;
71867;SDS011;59738;48.324;14.230;2023-04-24T00:35:23;3.97;;;1.83;;
71867;SDS011;59738;48.324;14.230;2023-04-24T00:37:50;2.50;;;1.80;;
71867;SDS011;59738;48.324;14.230;2023-04-24T00:40:18;1.77;;;1.67;;
71867;SDS011;59738;48.324;14.230;2023-04-24T00:42:46;4.50;;;1.70;;
71867;SDS011;59738;48.324;14.230;2023-04-24T00:45:14;2.05;;;1.80;;
71867;SDS011;59738;48.324;14.230;2023-04-24T00:47:41;3.42;;;2.00;;
71867;SDS011;59738;48.324;14.230;2023-04-24T00:50:09;2.78;;;1.80;;
71867;SDS011;59738;48.324;14.230;2023-04-24T00:52:37;2.10;;;1.90;;
71867;SDS011;59738;48.324;14.230;2023-04-24T00:55:06;3.20;;;1.50;;
71867;SDS011;59738;48.324;14.230;2023-04-24T00:57:34;1.60;;;1.50;;
71867;SDS011;59738;48.324;14.230;2023-04-24T01:00:03;2.70;;;1.88;;
71867;SDS011;59738;48.324;14.230;2023-04-24T01:02:33;2.15;;;1.95;;
71867;SDS011;59738;48.324;14.230;2023-04-24T01:05:01;2.20;;;1.80;;
71867;SDS011;59738;48.324;14.230;2023-04-24T01:07:29;2.03;;;1.87;;
71867;SDS011;59738;48.324;14.230;2023-04-24T01:09:56;1.85;;;1.63;;
71867;SDS011;59738;48.324;14.230;2023-04-24T01:12:24;2.58;;;1.90;;
71867;SDS011;59738;48.324;14.230;2023-04-24T01:14:52;2.33;;;1.80;;
71867;SDS011;59738;48.324;14.230;2023-04-24T01:17:20;1.95;;;1.83;;
71867;SDS011;59738;48.324;14.230;2023-04-24T01:19:47;1.83;;;1.70;;
71867;SDS011;59738;48.324;14.230;2023-04-24T01:22:16;1.70;;;1.60;;
71867;SDS011;59738;48.324;14.230;2023-04-24T01:24:43;2.75;;;1.90;;
71867;SDS011;59738;48.324;14.230;2023-04-24T01:27:11;1.85;;;1.75;;
71867;SDS011;59738;48.324;14.230;2023-04-24T01:29:39;2.40;;;1.70;;
71867;SDS011;59738;48.324;14.230;2023-04-24T01:32:06;2.30;;;1.83;;
71867;SDS011;59738;48.324;14.230;2023-04-24T01:34:33;3.03;;;1.75;;
71867;SDS011;59738;48.324;14.230;2023-04-24T01:37:01;2.25;;;1.60;;
71867;SDS011;59738;48.324;14.230;2023-04-24T01:39:29;6.97;;;1.60;;
71867;SDS011;59738;48.324;14.230;2023-04-24T01:41:57;2.30;;;1.73;;
71867;SDS011;59738;48.324;14.230;2023-04-24T01:44:24;1.70;;;1.60;;
71867;SDS011;59738;48.324;14.230;2023-04-24T01:46:51;2.30;;;1.92;;
71867;SDS011;59738;48.324;14.230;2023-04-24T01:49:19;3.92;;;2.10;;
71867;SDS011;59738;48.324;14.230;2023-04-24T01:51:47;2.97;;;2.00;;
71867;SDS011;59738;48.324;14.230;2023-04-24T01:54:14;2.85;;;1.92;;
71867;SDS011;59738;48.324;14.230;2023-04-24T01:56:43;1.73;;;1.63;;
71867;SDS011;59738;48.324;14.230;2023-04-24T01:59:10;2.25;;;1.50;;
71867;SDS011;59738;48.324;14.230;2023-04-24T02:01:38;3.60;;;1.88;;
71867;SDS011;59738;48.324;14.230;2023-04-24T02:04:05;2.65;;;2.03;;
71867;SDS011;59738;48.324;14.230;2023-04-24T02:06:35;1.88;;;1.70;;
71867;SDS011;59738;48.324;14.230;2023-04-24T02:09:02;2.40;;;1.77;;
71867;SDS011;59738;48.324;14.230;2023-04-24T02:11:30;5.68;;;2.20;;
71867;SDS011;59738;48.324;14.230;2023-04-24T02:13:59;3.65;;;1.90;;
71867;SDS011;59738;48.324;14.230;2023-04-24T02:16:27;3.30;;;2.00;;
71867;SDS011;59738;48.324;14.230;2023-04-24T02:18:56;2.65;;;1.88;;
71867;SDS011;59738;48.324;14.230;2023-04-24T02:21:24;4.30;;;2.10;;
71867;SDS011;59738;48.324;14.230;2023-04-24T02:23:51;1.90;;;1.80;;
71867;SDS011;59738;48.324;14.230;2023-04-24T02:26:18;3.70;;;2.03;;
71867;SDS011;59738;48.324;14.230;2023-04-24T02:28:45;4.75;;;1.92;;
71867;SDS011;59738;48.324;14.230;2023-04-24T02:31:14;2.13;;;1.90;;
71867;SDS011;59738;48.324;14.230;2023-04-24T02:33:41;2.07;;;1.87;;
71867;SDS011;59738;48.324;14.230;2023-04-24T02:36:09;5.15;;;2.05;;
71867;SDS011;59738;48.324;14.230;2023-04-24T02:38:36;3.15;;;2.20;;
71867;SDS011;59738;48.324;14.230;2023-04-24T02:41:05;2.67;;;1.95;;
71867;SDS011;59738;48.324;14.230;2023-04-24T02:43:32;2.47;;;2.13;;
71867;SDS011;59738;48.324;14.230;2023-04-24T02:46:01;2.97;;;2.20;;
71867;SDS011;59738;48.324;14.230;2023-04-24T02:48:30;3.15;;;2.30;;
71867;SDS011;59738;48.324;14.230;2023-04-24T02:50:57;3.28;;;2.78;;
71867;SDS011;59738;48.324;14.230;2023-04-24T02:53:24;3.35;;;2.35;;
71867;SDS011;59738;48.324;14.230;2023-04-24T02:55:52;2.72;;;2.10;;
71867;SDS011;59738;48.324;14.230;2023-04-24T02:58:19;3.23;;;2.47;;
71867;SDS011;59738;48.324;14.230;2023-04-24T03:00:46;2.63;;;2.20;;
71867;SDS011;59738;48.324;14.230;2023-04-24T03:03:14;4.43;;;2.40;;
71867;SDS011;59738;48.324;14.230;2023-04-24T03:05:43;4.78;;;2.15;;
71867;SDS011;59738;48.324;14.230;2023-04-24T03:08:10;2.38;;;2.00;;
71867;SDS011;59738;48.324;14.230;2023-04-24T03:10:37;2.13;;;1.80;;
71867;SDS011;59738;48.324;14.230;2023-04-24T03:13:05;2.63;;;2.08;;
71867;SDS011;59738;48.324;14.230;2023-04-24T03:15:34;3.35;;;2.65;;
71867;SDS011;59738;48.324;14.230;2023-04-24T03:18:01;3.08;;;2.50;;
71867;SDS011;59738;48.324;14.230;2023-04-24T03:20:28;2.60;;;2.20;;
71867;SDS011;59738;48.324;14.230;2023-04-24T03:22:58;3.97;;;2.40;;
71867;SDS011;59738;48.324;14.230;2023-04-24T03:25:26;3.70;;;2.50;;
71867;SDS011;59738;48.324;14.230;2023-04-24T03:27:54;2.83;;;2.30;;
71867;SDS011;59738;48.324;14.230;2023-04-24T03:30:31;3.22;;;2.78;;
71867;SDS011;59738;48.324;14.230;2023-04-24T03:33:00;3.50;;;2.47;;
71867;SDS011;59738;48.324;14.230;2023-04-24T03:35:31;3.43;;;2.73;;
71867;SDS011;59738;48.324;14.230;2023-04-24T03:38:03;4.30;;;3.10;;
71867;SDS011;59738;48.324;14.230;2023-04-24T03:41:00;5.90;;;3.08;;
71867;SDS011;59738;48.324;14.230;2023-04-24T03:43:46;4.72;;;2.72;;
71867;SDS011;59738;48.324;14.230;2023-04-24T03:46:14;3.47;;;2.85;;
71867;SDS011;59738;48.324;14.230;2023-04-24T03:48:47;3.53;;;2.73;;
71867;SDS011;59738;48.324;14.230;2023-04-24T03:51:17;3.42;;;2.65;;
71867;SDS011;59738;48.324;14.230;2023-04-24T03:53:50;3.20;;;2.65;;
71867;SDS011;59738;48.324;14.230;2023-04-24T03:56:20;5.10;;;2.85;;
71867;SDS011;59738;48.324;14.230;2023-04-24T03:58:47;5.32;;;2.90;;
71867;SDS011;59738;48.324;14.230;2023-04-24T04:01:15;4.37;;;3.10;;
71867;SDS011;59738;48.324;14.230;2023-04-24T04:03:48;4.68;;;3.17;;
71867;SDS011;59738;48.324;14.230;2023-04-24T04:06:19;5.90;;;3.33;;
71867;SDS011;59738;48.324;14.230;2023-04-24T04:08:47;4.50;;;3.13;;
71867;SDS011;59738;48.324;14.230;2023-04-24T04:11:16;4.93;;;3.40;;
71867;SDS011;59738;48.324;14.230;2023-04-24T04:13:45;5.33;;;2.97;;
71867;SDS011;59738;48.324;14.230;2023-04-24T04:16:15;7.50;;;3.28;;
71867;SDS011;59738;48.324;14.230;2023-04-24T04:18:43;4.57;;;3.40;;
71867;SDS011;59738;48.324;14.230;2023-04-24T04:21:11;4.75;;;2.97;;
71867;SDS011;59738;48.324;14.230;2023-04-24T04:23:38;5.68;;;3.00;;
71867;SDS011;59738;48.324;14.230;2023-04-24T04:26:12;3.93;;;2.87;;
71867;SDS011;59738;48.324;14.230;2023-04-24T04:29:00;5.47;;;2.92;;
71867;SDS011;59738;48.324;14.230;2023-04-24T04:31:29;5.70;;;3.95;;
71867;SDS011;59738;48.324;14.230;2023-04-24T04:34:00;5.30;;;2.90;;
71867;SDS011;59738;48.324;14.230;2023-04-24T04:36:29;4.68;;;3.42;;
71867;SDS011;59738;48.324;14.230;2023-04-24T04:39:03;6.63;;;3.53;;
71867;SDS011;59738;48.324;14.230;2023-04-24T04:41:46;5.60;;;3.30;;
71867;SDS011;59738;48.324;14.230;2023-04-24T04:44:16;6.75;;;4.30;;
71867;SDS011;59738;48.324;14.230;2023-04-24T04:46:43;7.00;;;3.45;;
71867;SDS011;59738;48.324;14.230;2023-04-24T04:49:22;5.93;;;4.15;;
71867;SDS011;59738;48.324;14.230;2023-04-24T04:51:50;6.97;;;4.27;;
71867;SDS011;59738;48.324;14.230;2023-04-24T04:54:18;7.07;;;4.63;;
71867;SDS011;59738;48.324;14.230;2023-04-24T04:56:45;7.43;;;4.20;;
71867;SDS011;59738;48.324;14.230;2023-04-24T04:59:12;5.35;;;4.25;;
71867;SDS011;59738;48.324;14.230;2023-04-24T05:01:42;6.07;;;4.05;;
71867;SDS011;59738;48.324;14.230;2023-04-24T05:04:11;4.43;;;3.50;;
71867;SDS011;59738;48.324;14.230;2023-04-24T05:06:38;4.35;;;2.78;;
71867;SDS011;59738;48.324;14.230;2023-04-24T05:09:05;7.07;;;4.05;;
71867;SDS011;59738;48.324;14.230;2023-04-24T05:11:48;6.55;;;3.60;;
71867;SDS011;59738;48.324;14.230;2023-04-24T05:14:16;4.97;;;3.70;;
71867;SDS011;59738;48.324;14.230;2023-04-24T05:16:46;5.07;;;3.20;;
71867;SDS011;59738;48.324;14.230;2023-04-24T05:19:15;4.55;;;3.33;;
71867;SDS011;59738;48.324;14.230;2023-04-24T05:21:44;6.35;;;3.70;;
71867;SDS011;59738;48.324;14.230;2023-04-24T05:24:11;3.42;;;2.88;;
71867;SDS011;59738;48.324;14.230;2023-04-24T05:26:54;4.72;;;3.28;;
71867;SDS011;59738;48.324;14.230;2023-04-24T05:29:28;3.70;;;2.90;;
71867;SDS011;59738;48.324;14.230;2023-04-24T05:31:58;2.85;;;2.30;;
71867;SDS011;59738;48.324;14.230;2023-04-24T05:34:25;3.33;;;2.58;;
71867;SDS011;59738;48.324;14.230;2023-04-24T05:36:55;4.78;;;2.42;;
71867;SDS011;59738;48.324;14.230;2023-04-24T05:39:22;3.80;;;2.47;;
71867;SDS011;59738;48.324;14.230;2023-04-24T05:41:51;3.57;;;2.60;;
71867;SDS011;59738;48.324;14.230;2023-04-24T05:44:18;2.20;;;2.00;;
71867;SDS011;59738;48.324;14.230;2023-04-24T05:46:45;2.30;;;2.10;;
71867;SDS011;59738;48.324;14.230;2023-04-24T05:49:13;1.73;;;1.60;;
71867;SDS011;59738;48.324;14.230;2023-04-24T05:51:41;2.05;;;1.70;;
71867;SDS011;59738;48.324;14.230;2023-04-24T05:54:08;3.43;;;1.57;;
71867;SDS011;59738;48.324;14.230;2023-04-24T05:56:37;1.70;;;1.45;;
71867;SDS011;59738;48.324;14.230;2023-04-24T05:59:06;1.60;;;1.50;;
71867;SDS011;59738;48.324;14.230;2023-04-24T06:01:34;1.35;;;1.25;;
71867;SDS011;59738;48.324;14.230;2023-04-24T06:04:16;1.92;;;1.50;;
71867;SDS011;59738;48.324;14.230;2023-04-24T06:06:44;1.70;;;1.40;;
71867;SDS011;59738;48.324;14.230;2023-04-24T06:09:11;1.50;;;1.35;;
71867;SDS011;59738;48.324;14.230;2023-04-24T06:11:38;1.75;;;1.40;;
71867;SDS011;59738;48.324;14.230;2023-04-24T06:14:08;1.38;;;1.20;;
71867;SDS011;59738;48.324;14.230;2023-04-24T06:16:40;1.95;;;1.30;;
71867;SDS011;59738;48.324;14.230;2023-04-24T06:19:20;1.17;;;1.07;;
71867;SDS011;59738;48.324;14.230;2023-04-24T06:21:48;1.63;;;1.25;;
71867;SDS011;59738;48.324;14.230;2023-04-24T06:24:15;2.28;;;1.60;;
71867;SDS011;59738;48.324;14.230;2023-04-24T06:26:42;1.48;;;1.38;;
71867;SDS011;59738;48.324;14.230;2023-04-24T06:29:09;2.47;;;1.55;;
71867;SDS011;59738;48.324;14.230;2023-04-24T06:31:36;3.07;;;1.40;;
71867;SDS011;59738;48.324;14.230;2023-04-24T06:34:04;2.00;;;1.58;;
71867;SDS011;59738;48.324;14.230;2023-04-24T06:36:32;2.65;;;1.70;;
71867;SDS011;59738;48.324;14.230;2023-04-24T06:39:00;1.77;;;1.48;;
71867;SDS011;59738;48.324;14.230;2023-04-24T06:41:27;2.78;;;1.50;;
71867;SDS011;59738;48.324;14.230;2023-04-24T06:43:55;1.40;;;1.30;;
71867;SDS011;59738;48.324;14.230;2023-04-24T06:46:22;1.50;;;1.40;;
71867;SDS011;59738;48.324;14.230;2023-04-24T06:48:51;1.45;;;1.35;;
71867;SDS011;59738;48.324;14.230;2023-04-24T06:51:22;1.92;;;1.50;;
71867;SDS011;59738;48.324;14.230;2023-04-24T06:53:50;1.88;;;1.50;;
71867;SDS011;59738;48.324;14.230;2023-04-24T06:56:18;1.33;;;1.23;;
71867;SDS011;59738;48.324;14.230;2023-04-24T06:58:46;2.13;;;1.20;;
71867;SDS011;59738;48.324;14.230;2023-04-24T07:01:13;2.35;;;1.70;;
71867;SDS011;59738;48.324;14.230;2023-04-24T07:03:40;1.75;;;1.50;;
71867;SDS011;59738;48.324;14.230;2023-04-24T07:06:07;3.05;;;1.80;;
71867;SDS011;59738;48.324;14.230;2023-04-24T07:08:34;1.63;;;1.50;;
71867;SDS011;59738;48.324;14.230;2023-04-24T07:11:03;2.50;;;1.60;;
71867;SDS011;59738;48.324;14.230;2023-04-24T07:13:31;1.80;;;1.70;;
71867;SDS011;59738;48.324;14.230;2023-04-24T07:15:58;4.40;;;2.10;;
71867;SDS011;59738;48.324;14.230;2023-04-24T07:18:25;1.60;;;1.50;;
71867;SDS011;59738;48.324;14.230;2023-04-24T07:20:52;1.93;;;1.53;;
71867;SDS011;59738;48.324;14.230;2023-04-24T07:23:20;1.58;;;1.48;;
71867;SDS011;59738;48.324;14.230;2023-04-24T07:25:47;2.78;;;1.60;;
71867;SDS011;59738;48.324;14.230;2023-04-24T07:28:15;2.45;;;1.33;;
71867;SDS011;59738;48.324;14.230;2023-04-24T07:30:45;2.00;;;1.33;;
71867;SDS011;59738;48.324;14.230;2023-04-24T07:33:12;1.47;;;1.33;;
71867;SDS011;59738;48.324;14.230;2023-04-24T07:35:39;1.60;;;1.50;;
71867;SDS011;59738;48.324;14.230;2023-04-24T07:38:06;2.53;;;2.00;;
71867;SDS011;59738;48.324;14.230;2023-04-24T07:40:33;1.50;;;1.40;;
71867;SDS011;59738;48.324;14.230;2023-04-24T07:43:01;2.03;;;1.80;;
71867;SDS011;59738;48.324;14.230;2023-04-24T07:45:29;1.77;;;1.60;;
71867;SDS011;59738;48.324;14.230;2023-04-24T07:47:56;1.60;;;1.40;;
71867;SDS011;59738;48.324;14.230;2023-04-24T07:50:24;2.10;;;1.90;;
71867;SDS011;59738;48.324;14.230;2023-04-24T07:52:51;1.85;;;1.70;;
71867;SDS011;59738;48.324;14.230;2023-04-24T07:55:18;2.30;;;1.98;;
71867;SDS011;59738;48.324;14.230;2023-04-24T07:57:45;1.50;;;1.40;;
71867;SDS011;59738;48.324;14.230;2023-04-24T08:00:12;1.70;;;1.60;;
71867;SDS011;59738;48.324;14.230;2023-04-24T08:02:41;2.38;;;1.80;;
71867;SDS011;59738;48.324;14.230;2023-04-24T08:05:08;3.00;;;1.65;;
71867;SDS011;59738;48.324;14.230;2023-04-24T08:07:35;5.15;;;1.75;;
71867;SDS011;59738;48.324;14.230;2023-04-24T08:10:03;2.63;;;1.40;;
71867;SDS011;59738;48.324;14.230;2023-04-24T08:12:30;4.45;;;1.65;;
71867;SDS011;59738;48.324;14.230;2023-04-24T08:14:57;2.22;;;1.88;;
71867;SDS011;59738;48.324;14.230;2023-04-24T08:17:24;6.18;;;2.20;;
71867;SDS011;59738;48.324;14.230;2023-04-24T08:19:53;2.15;;;1.98;;
71867;SDS011;59738;48.324;14.230;2023-04-24T08:22:27;4.23;;;1.80;;
71867;SDS011;59738;48.324;14.230;2023-04-24T08:24:54;1.90;;;1.80;;
71867;SDS011;59738;48.324;14.230;2023-04-24T08:27:21;2.20;;;2.00;;
71867;SDS011;59738;48.324;14.230;2023-04-24T08:29:49;2.58;;;1.85;;
71867;SDS011;59738;48.324;14.230;2023-04-24T08:32:16;3.70;;;1.83;;
71867;SDS011;59738;48.324;14.230;2023-04-24T08:34:43;2.00;;;1.80;;
71867;SDS011;59738;48.324;14.230;2023-04-24T08:37:12;2.08;;;1.88;;
71867;SDS011;59738;48.324;14.230;2023-04-24T08:39:39;2.80;;;1.95;;
71867;SDS011;59738;48.324;14.230;2023-04-24T08:42:06;3.45;;;1.80;;
71867;SDS011;59738;48.324;14.230;2023-04-24T08:44:34;2.17;;;1.98;;
71867;SDS011;59738;48.324;14.230;2023-04-24T08:47:01;2.07;;;1.87;;
71867;SDS011;59738;48.324;14.230;2023-04-24T08:49:29;3.42;;;2.20;;
71867;SDS011;59738;48.324;14.230;2023-04-24T08:51:56;2.45;;;2.00;;
71867;SDS011;59738;48.324;14.230;2023-04-24T08:54:24;2.15;;;1.95;;
71867;SDS011;59738;48.324;14.230;2023-04-24T08:56:52;2.63;;;2.42;;
71867;SDS011;59738;48.324;14.230;2023-04-24T08:59:20;2.30;;;2.10;;
71867;SDS011;59738;48.324;14.230;2023-04-24T09:01:48;3.17;;;2.03;;
71867;SDS011;59738;48.324;14.230;2023-04-24T09:04:16;3.20;;;2.90;;
71867;SDS011;59738;48.324;14.230;2023-04-24T09:06:45;2.85;;;2.20;;
71867;SDS011;59738;48.324;14.230;2023-04-24T09:09:13;4.65;;;2.72;;
71867;SDS011;59738;48.324;14.230;2023-04-24T09:11:41;2.97;;;2.13;;
71867;SDS011;59738;48.324;14.230;2023-04-24T09:14:09;1.88;;;1.63;;
71867;SDS011;59738;48.324;14.230;2023-04-24T09:16:36;3.13;;;2.20;;
71867;SDS011;59738;48.324;14.230;2023-04-24T09:19:03;3.42;;;2.08;;
71867;SDS011;59738;48.324;14.230;2023-04-24T09:21:31;3.47;;;2.58;;
71867;SDS011;59738;48.324;14.230;2023-04-24T09:23:59;3.60;;;2.00;;
71867;SDS011;59738;48.324;14.230;2023-04-24T09:26:29;2.15;;;2.00;;
71867;SDS011;59738;48.324;14.230;2023-04-24T09:28:58;3.28;;;2.60;;
71867;SDS011;59738;48.324;14.230;2023-04-24T09:31:27;4.55;;;2.28;;
71867;SDS011;59738;48.324;14.230;2023-04-24T09:33:55;3.10;;;2.45;;
71867;SDS011;59738;48.324;14.230;2023-04-24T09:36:32;2.67;;;2.00;;
71867;SDS011;59738;48.324;14.230;2023-04-24T09:39:00;2.97;;;2.30;;
71867;SDS011;59738;48.324;14.230;2023-04-24T09:41:27;2.63;;;2.30;;
71867;SDS011;59738;48.324;14.230;2023-04-24T09:43:55;3.47;;;2.40;;
71867;SDS011;59738;48.324;14.230;2023-04-24T09:46:30;4.20;;;2.40;;
71867;SDS011;59738;48.324;14.230;2023-04-24T09:49:02;3.03;;;2.40;;
71867;SDS011;59738;48.324;14.230;2023-04-24T09:51:34;4.72;;;2.35;;
71867;SDS011;59738;48.324;14.230;2023-04-24T09:54:03;2.30;;;2.10;;
71867;SDS011;59738;48.324;14.230;2023-04-24T09:56:32;2.92;;;2.40;;
71867;SDS011;59738;48.324;14.230;2023-04-24T09:59:05;3.33;;;2.42;;
71867;SDS011;59738;48.324;14.230;2023-04-24T10:01:34;3.13;;;2.03;;
71867;SDS011;59738;48.324;14.230;2023-04-24T10:04:04;2.90;;;2.47;;
71867;SDS011;59738;48.324;14.230;2023-04-24T10:06:33;3.25;;;2.13;;
71867;SDS011;59738;48.324;14.230;2023-04-24T10:09:00;2.13;;;1.95;;
71867;SDS011;59738;48.324;14.230;2023-04-24T10:11:28;2.65;;;2.45;;
71867;SDS011;59738;48.324;14.230;2023-04-24T10:13:55;2.77;;;1.83;;
71867;SDS011;59738;48.324;14.230;2023-04-24T10:16:23;2.58;;;1.73;;
71867;SDS011;59738;48.324;14.230;2023-04-24T10:18:54;3.17;;;2.20;;
71867;SDS011;59738;48.324;14.230;2023-04-24T10:21:22;1.77;;;1.67;;
71867;SDS011;59738;48.324;14.230;2023-04-24T10:23:49;1.83;;;1.73;;
71867;SDS011;59738;48.324;14.230;2023-04-24T10:26:17;2.77;;;1.73;;
71867;SDS011;59738;48.324;14.230;2023-04-24T10:28:46;2.35;;;1.73;;
71867;SDS011;59738;48.324;14.230;2023-04-24T10:31:13;2.30;;;2.10;;
71867;SDS011;59738;48.324;14.230;2023-04-24T10:33:42;4.43;;;2.05;;
71867;SDS011;59738;48.324;14.230;2023-04-24T10:36:11;2.20;;;1.98;;
71867;SDS011;59738;48.324;14.230;2023-04-24T10:38:39;1.90;;;1.70;;
71867;SDS011;59738;48.324;14.230;2023-04-24T10:41:07;1.85;;;1.75;;
71867;SDS011;59738;48.324;14.230;2023-04-24T10:43:36;4.75;;;2.03;;
71867;SDS011;59738;48.324;14.230;2023-04-24T10:46:03;2.40;;;1.70;;
71867;SDS011;59738;48.324;14.230;2023-04-24T10:48:31;4.40;;;1.90;;
71867;SDS011;59738;48.324;14.230;2023-04-24T10:50:59;3.63;;;1.90;;
71867;SDS011;59738;48.324;14.230;2023-04-24T10:53:28;4.90;;;1.88;;
71867;SDS011;59738;48.324;14.230;2023-04-24T10:55:59;1.90;;;1.80;;
71867;SDS011;59738;48.324;14.230;2023-04-24T10:58:35;2.03;;;1.83;;
71867;SDS011;59738;48.324;14.230;2023-04-24T11:01:03;1.80;;;1.70;;
71867;SDS011;59738;48.324;14.230;2023-04-24T11:03:30;2.03;;;1.70;;
71867;SDS011;59738;48.324;14.230;2023-04-24T11:05:58;1.70;;;1.60;;
71867;SDS011;59738;48.324;14.230;2023-04-24T11:08:28;2.55;;;1.60;;
71867;SDS011;59738;48.324;14.230;2023-04-24T11:10:57;2.00;;;1.80;;
71867;SDS011;59738;48.324;14.230;2023-04-24T11:13:25;2.35;;;2.15;;
71867;SDS011;59738;48.324;14.230;2023-04-24T11:18:38;2.20;;;1.63;;
71867;SDS011;59738;48.324;14.230;2023-04-24T11:21:09;1.83;;;1.52;;
71867;SDS011;59738;48.324;14.230;2023-04-24T11:23:38;6.93;;;2.00;;
71867;SDS011;59738;48.324;14.230;2023-04-24T11:26:11;1.42;;;1.33;;
71867;SDS011;59738;48.324;14.230;2023-04-24T11:28:46;1.37;;;1.27;;
71867;SDS011;59738;48.324;14.230;2023-04-24T11:33:55;2.65;;;1.60;;
71867;SDS011;59738;48.324;14.230;2023-04-24T11:36:23;1.52;;;1.40;;
71867;SDS011;59738;48.324;14.230;2023-04-24T11:38:52;11.80;;;1.98;;
71867;SDS011;59738;48.324;14.230;2023-04-24T11:41:19;3.17;;;1.50;;
71867;SDS011;59738;48.324;14.230;2023-04-24T11:43:47;4.97;;;1.90;;
71867;SDS011;59738;48.324;14.230;2023-04-24T11:46:16;1.90;;;1.80;;
71867;SDS011;59738;48.324;14.230;2023-04-24T11:48:44;2.22;;;1.40;;
71867;SDS011;59738;48.324;14.230;2023-04-24T11:51:12;2.92;;;1.50;;
71867;SDS011;59738;48.324;14.230;2023-04-24T11:53:39;3.43;;;1.73;;
71867;SDS011;59738;48.324;14.230;2023-04-24T11:56:09;2.28;;;1.40;;
71867;SDS011;59738;48.324;14.230;2023-04-24T11:58:37;1.60;;;1.50;;
71867;SDS011;59738;48.324;14.230;2023-04-24T12:01:04;2.75;;;1.30;;
71867;SDS011;59738;48.324;14.230;2023-04-24T12:03:32;1.65;;;1.48;;
71867;SDS011;59738;48.324;14.230;2023-04-24T12:06:05;1.13;;;1.10;;
71867;SDS011;59738;48.324;14.230;2023-04-24T12:08:33;1.98;;;1.23;;
71867;SDS011;59738;48.324;14.230;2023-04-24T12:11:00;1.50;;;1.40;;
71867;SDS011;59738;48.324;14.230;2023-04-24T12:13:29;1.75;;;1.45;;
71867;SDS011;59738;48.324;14.230;2023-04-24T12:15:56;1.50;;;1.30;;
71867;SDS011;59738;48.324;14.230;2023-04-24T12:18:24;1.40;;;1.30;;
71867;SDS011;59738;48.324;14.230;2023-04-24T12:20:51;1.08;;;1.08;;
71867;SDS011;59738;48.324;14.230;2023-04-24T12:23:32;1.65;;;1.20;;
71867;SDS011;59738;48.324;14.230;2023-04-24T12:26:00;1.00;;;1.00;;
71867;SDS011;59738;48.324;14.230;2023-04-24T12:28:35;0.90;;;0.90;;
71867;SDS011;59738;48.324;14.230;2023-04-24T12:31:03;0.90;;;0.90;;
71867;SDS011;59738;48.324;14.230;2023-04-24T12:33:32;0.93;;;0.93;;
71867;SDS011;59738;48.324;14.230;2023-04-24T12:35:59;1.13;;;1.02;;
71867;SDS011;59738;48.324;14.230;2023-04-24T12:38:27;2.45;;;1.00;;
71867;SDS011;59738;48.324;14.230;2023-04-24T12:41:02;1.38;;;1.27;;
71867;SDS011;59738;48.324;14.230;2023-04-24T12:43:30;0.80;;;0.80;;
71867;SDS011;59738;48.324;14.230;2023-04-24T12:45:59;0.98;;;0.98;;
71867;SDS011;59738;48.324;14.230;2023-04-24T12:48:27;1.73;;;1.63;;
71867;SDS011;59738;48.324;14.230;2023-04-24T12:50:54;1.27;;;1.15;;
71867;SDS011;59738;48.324;14.230;2023-04-24T12:53:22;1.20;;;1.10;;
71867;SDS011;59738;48.324;14.230;2023-04-24T12:55:52;1.60;;;1.00;;
71867;SDS011;59738;48.324;14.230;2023-04-24T12:58:19;1.00;;;1.00;;
71867;SDS011;59738;48.324;14.230;2023-04-24T13:00:47;1.35;;;1.30;;
71867;SDS011;59738;48.324;14.230;2023-04-24T13:03:15;1.10;;;1.00;;
71867;SDS011;59738;48.324;14.230;2023-04-24T13:05:43;1.23;;;1.17;;
71867;SDS011;59738;48.324;14.230;2023-04-24T13:08:10;1.27;;;1.17;;
71867;SDS011;59738;48.324;14.230;2023-04-24T13:10:38;1.58;;;1.42;;
71867;SDS011;59738;48.324;14.230;2023-04-24T13:13:06;1.42;;;1.30;;
71867;SDS011;59738;48.324;14.230;2023-04-24T13:15:33;1.55;;;1.30;;
71867;SDS011;59738;48.324;14.230;2023-04-24T13:18:01;1.20;;;1.10;;
71867;SDS011;59738;48.324;14.230;2023-04-24T13:20:29;1.70;;;1.30;;
71867;SDS011;59738;48.324;14.230;2023-04-24T13:22:56;1.65;;;1.10;;
71867;SDS011;59738;48.324;14.230;2023-04-24T13:25:23;1.30;;;1.20;;
71867;SDS011;59738;48.324;14.230;2023-04-24T13:27:50;1.30;;;1.15;;
71867;SDS011;59738;48.324;14.230;2023-04-24T13:30:18;1.70;;;1.60;;
71867;SDS011;59738;48.324;14.230;2023-04-24T13:32:45;1.10;;;1.10;;
71867;SDS011;59738;48.324;14.230;2023-04-24T13:35:12;1.38;;;1.27;;
71867;SDS011;59738;48.324;14.230;2023-04-24T13:37:40;2.90;;;1.50;;
71867;SDS011;59738;48.324;14.230;2023-04-24T13:40:08;1.40;;;1.30;;
71867;SDS011;59738;48.324;14.230;2023-04-24T13:42:35;1.42;;;1.33;;
71867;SDS011;59738;48.324;14.230;2023-04-24T13:45:03;1.40;;;1.30;;
71867;SDS011;59738;48.324;14.230;2023-04-24T13:47:31;1.58;;;1.30;;
71867;SDS011;59738;48.324;14.230;2023-04-24T13:49:58;2.80;;;1.83;;
71867;SDS011;59738;48.324;14.230;2023-04-24T13:52:26;2.05;;;1.40;;
71867;SDS011;59738;48.324;14.230;2023-04-24T13:54:54;1.70;;;1.60;;
71867;SDS011;59738;48.324;14.230;2023-04-24T13:57:22;1.60;;;1.50;;
71867;SDS011;59738;48.324;14.230;2023-04-24T13:59:49;1.67;;;1.48;;
71867;SDS011;59738;48.324;14.230;2023-04-24T14:02:16;1.63;;;1.52;;
71867;SDS011;59738;48.324;14.230;2023-04-24T14:04:44;2.05;;;1.55;;
71867;SDS011;59738;48.324;14.230;2023-04-24T14:07:11;1.58;;;1.40;;
71867;SDS011;59738;48.324;14.230;2023-04-24T14:09:38;1.60;;;1.50;;
71867;SDS011;59738;48.324;14.230;2023-04-24T14:12:07;2.00;;;1.50;;
71867;SDS011;59738;48.324;14.230;2023-04-24T14:14:34;1.95;;;1.70;;
71867;SDS011;59738;48.324;14.230;2023-04-24T14:17:02;1.58;;;1.42;;
71867;SDS011;59738;48.324;14.230;2023-04-24T14:19:29;1.60;;;1.50;;
71867;SDS011;59738;48.324;14.230;2023-04-24T14:21:56;5.73;;;1.90;;
71867;SDS011;59738;48.324;14.230;2023-04-24T14:24:24;2.08;;;1.35;;
71867;SDS011;59738;48.324;14.230;2023-04-24T14:26:51;1.92;;;1.63;;
71867;SDS011;59738;48.324;14.230;2023-04-24T14:29:19;1.80;;;1.60;;
71867;SDS011;59738;48.324;14.230;2023-04-24T14:31:47;2.03;;;1.85;;
71867;SDS011;59738;48.324;14.230;2023-04-24T14:34:14;1.70;;;1.60;;
71867;SDS011;59738;48.324;14.230;2023-04-24T14:36:41;2.88;;;1.60;;
71867;SDS011;59738;48.324;14.230;2023-04-24T14:39:08;1.63;;;1.52;;
71867;SDS011;59738;48.324;14.230;2023-04-24T14:41:36;3.88;;;1.95;;
71867;SDS011;59738;48.324;14.230;2023-04-24T14:44:05;3.03;;;1.85;;
71867;SDS011;59738;48.324;14.230;2023-04-24T14:46:33;1.87;;;1.70;;